createdAt,value
2018-08-03T00:00:43.089Z,99.90
2018-08-03T00:03:10.343Z,99.90
2018-08-03T00:05:37.574Z,99.90
2018-08-03T00:10:32.119Z,99.90
2018-08-03T00:12:59.391Z,99.90
2018-08-03T00:17:54.664Z,99.90
2018-08-03T00:20:21.948Z,99.90
2018-08-03T00:22:49.188Z,99.90
2018-08-03T00:25:16.423Z,99.90
2018-08-03T00:30:10.915Z,99.90
2018-08-03T00:32:38.142Z,99.90
2018-08-03T00:35:05.421Z,99.90
2018-08-03T00:37:32.683Z,99.90
2018-08-03T00:40:00.007Z,99.90
2018-08-03T00:42:27.262Z,99.90
2018-08-03T00:44:54.479Z,99.90
2018-08-03T00:47:21.712Z,99.90
2018-08-03T00:49:48.927Z,99.90
2018-08-03T00:52:16.174Z,99.90
2018-08-03T00:54:43.418Z,99.90
2018-08-03T00:57:10.687Z,99.90
2018-08-03T00:59:37.890Z,99.90
2018-08-03T01:02:05.247Z,99.90
2018-08-03T01:04:32.443Z,99.90
2018-08-03T01:06:59.707Z,99.90
2018-08-03T01:09:26.910Z,99.90
2018-08-03T01:11:54.163Z,99.90
2018-08-03T01:14:21.360Z,99.90
2018-08-03T01:16:48.611Z,99.90
2018-08-03T01:19:15.838Z,99.90
2018-08-03T01:24:11.575Z,99.90
2018-08-03T01:26:38.928Z,99.90
2018-08-03T01:29:06.154Z,99.90
2018-08-03T01:31:33.370Z,99.90
2018-08-03T01:34:00.618Z,99.90
2018-08-03T01:36:27.827Z,99.90
2018-08-03T01:38:55.151Z,99.90
2018-08-03T01:41:22.443Z,99.90
2018-08-03T01:43:49.667Z,99.90
2018-08-03T01:46:16.880Z,99.90
2018-08-03T01:51:11.346Z,99.90
2018-08-03T01:53:38.736Z,99.90
2018-08-03T01:56:05.954Z,99.90
2018-08-03T01:58:33.186Z,99.90
2018-08-03T02:01:00.435Z,99.90
2018-08-03T02:03:27.647Z,99.90
2018-08-03T02:05:54.889Z,99.90
2018-08-03T02:08:22.115Z,99.90
2018-08-03T02:10:49.327Z,99.90
2018-08-03T02:13:16.535Z,99.90
2018-08-03T02:15:43.762Z,99.90
2018-08-03T02:20:38.286Z,99.90
2018-08-03T02:23:05.514Z,99.90
2018-08-03T02:25:32.731Z,99.90
2018-08-03T02:27:59.955Z,99.90
2018-08-03T02:30:27.184Z,99.90
2018-08-03T02:32:54.421Z,99.90
2018-08-03T02:35:21.666Z,99.90
2018-08-03T02:37:48.899Z,99.90
2018-08-03T02:40:16.126Z,99.90
2018-08-03T02:42:43.353Z,99.90
2018-08-03T02:45:10.608Z,99.90
2018-08-03T02:47:37.847Z,99.90
2018-08-03T02:50:05.104Z,99.90
2018-08-03T02:52:32.315Z,99.90
2018-08-03T02:54:59.598Z,99.90
2018-08-03T02:57:26.826Z,99.90
2018-08-03T02:59:54.078Z,99.90
2018-08-03T03:02:21.308Z,99.90
2018-08-03T03:04:48.555Z,99.90
2018-08-03T03:07:16.391Z,99.90
2018-08-03T03:09:43.624Z,99.90
2018-08-03T03:12:11.014Z,99.90
2018-08-03T03:14:38.356Z,99.90
2018-08-03T03:17:05.594Z,99.90
2018-08-03T03:22:00.079Z,99.90
2018-08-03T03:24:27.324Z,99.90
2018-08-03T03:26:54.567Z,99.90
2018-08-03T03:29:21.780Z,99.90
2018-08-03T03:31:49.119Z,99.90
2018-08-03T03:34:16.377Z,99.90
2018-08-03T03:36:43.590Z,99.90
2018-08-03T03:39:12.818Z,99.90
2018-08-03T03:41:40.078Z,99.90
2018-08-03T03:44:07.375Z,99.90
2018-08-03T03:46:35.051Z,99.90
2018-08-03T03:49:02.287Z,99.90
2018-08-03T03:51:29.549Z,99.90
2018-08-03T03:53:56.771Z,99.90
2018-08-03T03:56:24.036Z,99.90
2018-08-03T03:58:51.546Z,99.90
2018-08-03T04:01:18.803Z,99.90
2018-08-03T04:03:46.131Z,99.90
2018-08-03T04:08:40.578Z,99.90
2018-08-03T04:11:07.823Z,99.90
2018-08-03T04:13:35.052Z,99.90
2018-08-03T04:18:29.522Z,99.90
2018-08-03T04:20:56.767Z,99.90
2018-08-03T04:23:24.011Z,99.90
2018-08-03T04:28:18.470Z,99.90
2018-08-03T04:30:45.731Z,99.90
2018-08-03T04:33:13.473Z,99.90
2018-08-03T04:35:40.795Z,99.90
2018-08-03T04:38:08.139Z,99.90
2018-08-03T04:40:35.376Z,99.90
2018-08-03T04:45:29.876Z,99.90
2018-08-03T04:47:57.136Z,99.90
2018-08-03T04:50:24.396Z,99.90
2018-08-03T04:52:51.732Z,99.90
2018-08-03T04:55:18.958Z,99.90
2018-08-03T04:57:46.381Z,99.90
2018-08-03T05:00:13.751Z,99.90
2018-08-03T05:02:40.987Z,99.90
2018-08-03T05:05:08.691Z,99.90
2018-08-03T05:07:35.906Z,99.90
2018-08-03T05:12:30.411Z,99.90
2018-08-03T05:14:57.627Z,99.90
2018-08-03T05:17:24.863Z,99.90
2018-08-03T05:19:52.058Z,99.90
2018-08-03T05:22:19.318Z,99.90
2018-08-03T05:24:46.541Z,99.90
2018-08-03T05:27:13.892Z,99.90
2018-08-03T05:29:41.134Z,99.90
2018-08-03T05:32:08.344Z,99.90
2018-08-03T05:34:35.549Z,99.90
2018-08-03T05:37:02.946Z,99.90
2018-08-03T05:39:30.155Z,99.90
2018-08-03T05:41:57.406Z,99.90
2018-08-03T05:44:25.620Z,99.90
2018-08-03T05:49:20.044Z,99.90
2018-08-03T05:51:47.281Z,99.90
2018-08-03T05:54:14.463Z,99.90
2018-08-03T05:59:08.922Z,99.90
2018-08-03T06:01:36.213Z,99.90
2018-08-03T06:04:03.487Z,99.90
2018-08-03T06:06:30.701Z,99.90
2018-08-03T06:08:57.951Z,99.90
2018-08-03T06:11:25.168Z,99.90
2018-08-03T06:13:52.405Z,99.90
2018-08-03T06:16:19.630Z,99.90
2018-08-03T06:18:46.846Z,99.90
2018-08-03T06:21:14.079Z,99.90
2018-08-03T06:23:41.308Z,99.90
2018-08-03T06:26:08.629Z,99.90
2018-08-03T06:28:36.065Z,99.90
2018-08-03T06:31:03.224Z,99.90
2018-08-03T06:33:30.463Z,99.90
2018-08-03T06:35:57.694Z,99.90
2018-08-03T06:38:24.913Z,99.90
2018-08-03T06:40:52.150Z,99.90
2018-08-03T06:43:19.371Z,99.90
2018-08-03T06:45:46.602Z,99.90
2018-08-03T06:48:13.835Z,99.90
2018-08-03T06:50:41.026Z,99.90
2018-08-03T06:53:08.292Z,99.90
2018-08-03T06:55:35.791Z,99.90
2018-08-03T06:58:03.042Z,99.90
2018-08-03T07:02:57.504Z,99.90
2018-08-03T07:07:52.408Z,99.90
2018-08-03T07:10:19.625Z,99.90
2018-08-03T07:12:46.922Z,99.90
2018-08-03T07:15:14.126Z,99.90
2018-08-03T07:17:41.354Z,99.90
2018-08-03T07:20:08.654Z,99.90
2018-08-03T07:22:35.834Z,99.90
2018-08-03T07:25:03.102Z,99.90
2018-08-03T07:27:30.787Z,99.90
2018-08-03T07:29:58.346Z,99.90
2018-08-03T07:32:25.656Z,99.90
2018-08-03T07:34:52.866Z,99.90
2018-08-03T07:37:20.074Z,99.90
2018-08-03T07:39:47.282Z,99.90
2018-08-03T07:44:43.822Z,99.90
2018-08-03T07:47:11.593Z,99.90
2018-08-03T07:49:38.847Z,99.90
2018-08-03T07:52:06.971Z,99.90
2018-08-03T07:57:01.828Z,99.90
2018-08-03T07:59:29.432Z,99.90
2018-08-03T08:01:56.699Z,99.90
2018-08-03T08:04:23.916Z,99.90
2018-08-03T08:09:18.400Z,99.90
2018-08-03T08:11:45.927Z,99.90
2018-08-03T08:14:13.263Z,99.90
2018-08-03T08:16:40.475Z,99.90
2018-08-03T08:19:07.727Z,99.90
2018-08-03T08:21:35.380Z,99.90
2018-08-03T08:28:57.124Z,99.90
2018-08-03T08:31:24.365Z,99.90
2018-08-03T08:36:20.615Z,99.90
2018-08-03T08:38:48.055Z,99.90
2018-08-03T08:41:15.292Z,99.90
2018-08-03T08:43:42.763Z,99.90
2018-08-03T08:48:37.515Z,99.90
2018-08-03T08:51:04.773Z,99.90
2018-08-03T08:53:32.047Z,99.90
2018-08-03T08:55:59.251Z,99.90
2018-08-03T08:58:26.475Z,99.90
2018-08-03T09:00:54.870Z,99.90
2018-08-03T09:03:22.163Z,99.90
2018-08-03T09:05:49.368Z,99.90
2018-08-03T09:08:16.628Z,99.90
2018-08-03T09:10:43.862Z,55.20
2018-08-03T09:13:11.124Z,43.90
2018-08-03T09:15:38.372Z,36.20
2018-08-03T09:18:05.842Z,37.00
2018-08-03T09:20:33.161Z,35.90
2018-08-03T09:23:00.406Z,32.70
2018-08-03T09:25:27.632Z,32.40
2018-08-03T09:27:54.960Z,31.60
2018-08-03T09:30:22.266Z,31.90
2018-08-03T09:32:49.507Z,30.50
2018-08-03T09:35:16.825Z,29.90
2018-08-03T09:40:11.999Z,29.70
2018-08-03T09:42:39.226Z,29.40
2018-08-03T09:45:06.559Z,29.60
2018-08-03T09:47:33.762Z,28.10
2018-08-03T09:50:01.037Z,27.80
2018-08-03T09:52:28.327Z,28.00
2018-08-03T09:54:55.694Z,28.40
2018-08-03T09:57:22.902Z,28.30
2018-08-03T09:59:50.093Z,28.60
2018-08-03T10:02:17.296Z,28.00
2018-08-03T10:04:44.514Z,26.80
2018-08-03T10:07:11.752Z,27.10
2018-08-03T10:09:39.055Z,26.50
2018-08-03T10:12:06.271Z,26.70
2018-08-03T10:14:33.499Z,26.80
2018-08-03T10:17:00.734Z,25.90
2018-08-03T10:19:28.020Z,26.10
2018-08-03T10:21:55.339Z,25.70
2018-08-03T10:24:22.570Z,25.50
2018-08-03T10:26:49.853Z,25.70
2018-08-03T10:31:50.367Z,25.20
2018-08-03T10:34:17.664Z,23.90
2018-08-03T10:36:44.988Z,24.20
2018-08-03T10:39:12.210Z,24.80
2018-08-03T10:41:40.063Z,25.30
2018-08-03T10:46:35.061Z,23.80
2018-08-03T10:49:02.377Z,23.80
2018-08-03T10:51:29.701Z,24.50
2018-08-03T10:56:24.083Z,23.60
2018-08-03T10:58:51.463Z,24.00
2018-08-03T11:01:18.715Z,25.00
2018-08-03T11:03:45.917Z,24.40
2018-08-03T11:06:13.119Z,24.90
2018-08-03T11:08:40.314Z,23.80
2018-08-03T11:11:07.685Z,23.00
2018-08-03T11:13:35.068Z,22.20
2018-08-03T11:16:02.364Z,23.60
2018-08-03T11:18:29.645Z,24.20
2018-08-03T11:20:56.875Z,23.80
2018-08-03T11:23:24.175Z,23.70
2018-08-03T11:25:51.463Z,24.00
2018-08-03T11:28:18.650Z,22.10
2018-08-03T11:30:45.922Z,22.40
2018-08-03T11:33:13.246Z,22.00
2018-08-03T11:35:40.576Z,23.30
2018-08-03T11:38:07.863Z,24.20
2018-08-03T11:40:35.079Z,23.70
2018-08-03T11:43:02.385Z,24.40
2018-08-03T11:45:29.713Z,25.90
2018-08-03T11:47:56.968Z,26.90
2018-08-03T11:50:24.406Z,26.90
2018-08-03T11:55:18.980Z,25.20
2018-08-03T11:57:46.262Z,25.10
2018-08-03T12:00:13.487Z,24.40
2018-08-03T12:02:40.713Z,24.70
2018-08-03T12:05:07.988Z,24.20
2018-08-03T12:10:02.599Z,27.20
2018-08-03T12:12:29.865Z,28.20
2018-08-03T12:14:57.116Z,28.40
2018-08-03T12:17:24.455Z,25.80
2018-08-03T12:19:51.786Z,26.50
2018-08-03T12:24:46.228Z,26.00
2018-08-03T12:27:13.451Z,26.70
2018-08-03T12:29:40.767Z,27.40
2018-08-03T12:32:08.013Z,27.50
2018-08-03T12:37:02.592Z,29.20
2018-08-03T12:39:29.833Z,29.90
2018-08-03T12:41:57.144Z,30.20
2018-08-03T12:44:24.373Z,31.30
2018-08-03T12:46:51.697Z,31.70
2018-08-03T12:49:18.919Z,32.30
2018-08-03T12:51:46.253Z,33.70
2018-08-03T12:54:13.484Z,34.00
2018-08-03T12:56:40.790Z,33.80
2018-08-03T12:59:07.998Z,33.40
2018-08-03T13:01:35.234Z,34.20
2018-08-03T13:04:02.480Z,32.50
2018-08-03T13:06:29.746Z,33.00
2018-08-03T13:08:57.047Z,32.90
2018-08-03T13:11:24.351Z,33.30
2018-08-03T13:13:51.740Z,33.80
2018-08-03T13:16:19.050Z,34.10
2018-08-03T13:18:46.296Z,33.90
2018-08-03T13:23:53.734Z,34.00
2018-08-03T13:26:21.067Z,34.70
2018-08-03T13:28:48.502Z,34.90
2018-08-03T13:31:15.746Z,34.90
2018-08-03T13:33:43.063Z,35.60
2018-08-03T13:38:37.551Z,34.50
2018-08-03T13:41:04.985Z,33.70
2018-08-03T13:45:59.487Z,34.00
2018-08-03T13:50:54.499Z,32.80
2018-08-03T13:53:21.743Z,32.40
2018-08-03T13:55:48.977Z,32.60
2018-08-03T13:58:16.199Z,32.80
2018-08-03T14:00:43.513Z,33.10
2018-08-03T14:03:10.767Z,32.40
2018-08-03T14:05:37.984Z,31.50
2018-08-03T14:08:05.332Z,32.40
2018-08-03T14:10:32.598Z,32.90
2018-08-03T14:12:59.859Z,32.90
2018-08-03T14:15:27.106Z,32.60
2018-08-03T14:17:54.395Z,32.50
2018-08-03T14:20:21.687Z,33.40
2018-08-03T14:22:49.318Z,32.60
2018-08-03T14:25:16.539Z,32.80
2018-08-03T14:27:43.800Z,34.00
2018-08-03T14:30:11.085Z,34.10
2018-08-03T14:32:38.294Z,33.60
2018-08-03T14:35:05.532Z,34.30
2018-08-03T14:37:33.847Z,34.00
2018-08-03T14:40:01.075Z,33.90
2018-08-03T14:42:28.375Z,34.00
2018-08-03T14:44:55.610Z,34.60
2018-08-03T14:47:22.854Z,36.20
2018-08-03T14:49:50.092Z,34.30
2018-08-03T14:52:17.386Z,34.60
2018-08-03T14:57:12.003Z,35.00
2018-08-03T14:59:39.292Z,36.20
2018-08-03T15:02:06.543Z,34.90
2018-08-03T15:04:33.791Z,35.20
2018-08-03T15:07:01.081Z,34.80
2018-08-03T15:11:55.744Z,36.60
2018-08-03T15:14:22.995Z,35.50
2018-08-03T15:16:50.238Z,35.80
2018-08-03T15:24:12.056Z,34.60
2018-08-03T15:26:39.363Z,34.40
2018-08-03T15:29:06.619Z,35.00
2018-08-03T15:31:34.274Z,34.10
2018-08-03T15:34:01.535Z,33.60
2018-08-03T15:36:28.774Z,33.40
2018-08-03T15:43:50.680Z,34.80
2018-08-03T15:48:45.338Z,33.70
2018-08-03T15:51:12.571Z,33.90
2018-08-03T15:56:07.063Z,33.80
2018-08-03T15:58:34.305Z,34.40
2018-08-03T16:01:01.812Z,36.10
2018-08-03T16:05:56.467Z,34.30
2018-08-03T16:08:23.738Z,33.70
2018-08-03T16:10:50.974Z,34.40
2018-08-03T16:15:45.603Z,35.80
2018-08-03T16:23:08.281Z,36.10
2018-08-03T16:28:02.922Z,35.40
2018-08-03T16:30:30.226Z,34.80
2018-08-03T16:32:57.487Z,34.90
2018-08-03T16:35:24.730Z,35.20
2018-08-03T16:37:52.013Z,34.90
2018-08-03T16:40:19.309Z,35.50
2018-08-03T16:42:46.631Z,35.40
2018-08-03T16:45:13.955Z,35.80
2018-08-03T16:50:08.664Z,35.50
2018-08-03T16:52:35.898Z,34.70
2018-08-03T16:55:03.172Z,35.70
2018-08-03T16:57:30.418Z,35.20
2018-08-03T16:59:57.648Z,36.00
2018-08-03T17:02:24.883Z,36.00
2018-08-03T17:04:52.103Z,36.90
2018-08-03T17:07:19.642Z,37.20
2018-08-03T17:09:46.902Z,37.60
2018-08-03T17:12:14.140Z,37.20
2018-08-03T17:14:41.444Z,36.70
2018-08-03T17:19:35.930Z,36.70
2018-08-03T17:22:03.186Z,37.20
2018-08-03T17:24:30.482Z,38.80
2018-08-03T17:26:57.741Z,38.40
2018-08-03T17:29:24.955Z,37.20
2018-08-03T17:31:52.227Z,37.10
2018-08-03T17:34:19.429Z,37.20
2018-08-03T17:36:46.672Z,38.10
2018-08-03T17:39:13.970Z,37.90
2018-08-03T17:41:41.275Z,37.20
2018-08-03T17:44:08.553Z,39.00
2018-08-03T17:46:35.798Z,40.50
2018-08-03T17:49:03.064Z,40.80
2018-08-03T17:58:52.054Z,42.40
2018-08-03T18:01:19.333Z,42.80
2018-08-03T18:03:46.539Z,43.00
2018-08-03T18:11:08.917Z,43.10
2018-08-03T18:13:36.138Z,43.20
2018-08-03T18:16:03.507Z,43.50
2018-08-03T18:18:30.799Z,43.70
2018-08-03T18:20:58.053Z,44.60
2018-08-03T18:23:25.363Z,45.50
2018-08-03T18:25:52.620Z,45.90
2018-08-03T18:28:19.855Z,47.60
2018-08-03T18:30:47.127Z,49.40
2018-08-03T18:33:14.341Z,50.60
2018-08-03T18:38:08.859Z,53.20
2018-08-03T18:40:36.168Z,54.00
2018-08-03T18:43:03.390Z,54.50
2018-08-03T18:45:30.712Z,55.40
2018-08-03T18:47:57.932Z,56.40
2018-08-03T18:50:25.158Z,56.00
2018-08-03T18:52:52.478Z,56.00
2018-08-03T18:55:19.699Z,56.40
2018-08-03T18:57:46.973Z,54.70
2018-08-03T19:00:14.239Z,53.50
2018-08-03T19:02:41.498Z,53.30
2018-08-03T19:05:09.093Z,53.40
2018-08-03T19:10:03.737Z,53.40
2018-08-03T19:12:30.969Z,53.30
2018-08-03T19:14:58.529Z,53.40
2018-08-03T19:17:25.840Z,53.40
2018-08-03T19:19:53.150Z,53.40
2018-08-03T19:22:20.466Z,53.30
2018-08-03T19:24:47.710Z,53.60
2018-08-03T19:27:14.966Z,54.20
2018-08-03T19:29:42.233Z,54.70
2018-08-03T19:32:09.667Z,55.10
2018-08-03T19:34:38.151Z,55.20
2018-08-03T19:37:05.446Z,55.10
2018-08-03T19:39:32.707Z,54.30
2018-08-03T19:42:00.191Z,55.10
2018-08-03T19:44:27.458Z,55.00
2018-08-03T19:46:54.687Z,54.60
2018-08-03T19:49:21.975Z,55.40
2018-08-03T19:51:50.335Z,55.80
2018-08-03T19:54:17.676Z,56.00
2018-08-03T19:59:12.360Z,56.50
2018-08-03T20:01:39.699Z,56.70
2018-08-03T20:04:07.090Z,57.10
2018-08-03T20:06:34.667Z,56.80
2018-08-03T20:09:01.996Z,57.40
2018-08-03T20:11:29.300Z,57.50
2018-08-03T20:13:56.653Z,58.70
2018-08-03T20:16:23.878Z,57.50
2018-08-03T20:23:46.747Z,57.80
2018-08-03T20:26:15.349Z,58.30
2018-08-03T20:28:43.735Z,58.60
2018-08-03T20:31:11.859Z,59.10
2018-08-03T20:33:39.241Z,59.70
2018-08-03T20:38:38.494Z,58.50
2018-08-03T20:41:06.866Z,58.20
2018-08-03T20:43:34.167Z,58.20
2018-08-03T20:46:01.502Z,60.50
2018-08-03T20:48:28.780Z,61.90
2018-08-03T20:50:57.086Z,62.50
2018-08-03T20:53:25.321Z,63.00
2018-08-03T20:55:52.859Z,63.00
2018-08-03T20:58:22.220Z,62.80
2018-08-03T21:00:51.126Z,63.00
2018-08-03T21:03:19.672Z,63.80
2018-08-03T21:05:46.923Z,62.10
2018-08-03T21:08:14.196Z,65.90
2018-08-03T21:10:41.419Z,64.20
2018-08-03T21:13:12.661Z,64.00
2018-08-03T21:15:40.802Z,64.20
2018-08-03T21:18:08.426Z,65.30
2018-08-03T21:20:35.898Z,65.50
2018-08-03T21:23:04.237Z,66.70
2018-08-03T21:25:31.729Z,68.20
2018-08-03T21:30:27.891Z,69.90
2018-08-03T21:32:56.341Z,69.30
2018-08-03T21:35:37.836Z,69.30
2018-08-03T21:38:07.671Z,71.30
2018-08-03T21:40:35.722Z,70.70
2018-08-03T21:43:03.953Z,70.60
2018-08-03T21:45:31.435Z,71.30
2018-08-03T21:47:58.747Z,70.50
2018-08-03T21:50:26.671Z,72.00
2018-08-03T21:52:55.169Z,72.30
2018-08-03T21:55:25.384Z,74.40
2018-08-03T21:57:54.355Z,75.50
2018-08-03T22:00:23.645Z,75.90
2018-08-03T22:02:52.454Z,76.50
2018-08-03T22:05:21.555Z,78.00
2018-08-03T22:07:49.190Z,78.60
2018-08-03T22:10:19.171Z,80.00
2018-08-03T22:12:47.546Z,80.20
2018-08-03T22:15:15.665Z,82.50
2018-08-03T22:17:42.936Z,86.40
2018-08-03T22:20:11.056Z,86.10
2018-08-03T22:22:39.408Z,85.90
2018-08-03T22:25:09.843Z,86.50
2018-08-03T22:27:40.009Z,87.20
2018-08-03T22:32:37.641Z,90.10
2018-08-03T22:35:05.308Z,95.50
2018-08-03T22:42:27.302Z,93.90
2018-08-03T22:44:54.550Z,93.70
2018-08-03T22:47:21.875Z,93.80
2018-08-03T22:49:49.256Z,95.80
2018-08-03T22:52:16.506Z,95.60
2018-08-03T22:54:43.728Z,96.60
2018-08-03T22:57:13.903Z,97.30
2018-08-03T22:59:41.968Z,99.90
2018-08-03T23:02:09.527Z,98.40
2018-08-03T23:04:37.892Z,99.00
2018-08-03T23:09:32.562Z,99.00
2018-08-03T23:11:59.890Z,99.30
2018-08-03T23:14:27.227Z,99.90
2018-08-03T23:16:54.522Z,99.90
2018-08-03T23:19:21.739Z,99.90
2018-08-03T23:21:49.064Z,99.90
2018-08-03T23:26:43.555Z,99.90
2018-08-03T23:29:10.791Z,99.90
2018-08-03T23:31:38.109Z,99.90
2018-08-03T23:34:05.340Z,99.90
2018-08-03T23:36:32.588Z,99.90
2018-08-03T23:38:59.867Z,99.90
2018-08-03T23:41:27.124Z,99.90
2018-08-03T23:43:54.346Z,99.90
2018-08-03T23:46:21.598Z,99.90
2018-08-03T23:48:48.835Z,99.90
2018-08-03T23:51:16.080Z,99.90
2018-08-03T23:53:43.331Z,99.90
2018-08-03T23:56:10.599Z,99.90
2018-08-03T23:58:37.830Z,99.90
